Time;durP1;ratioP1;P1;durP2;ratioP2;P2;SDS_P1;SDS_P2;PMS_P1;PMS_P2;Temp;Humidity;BMP_temperature;BMP_pressure;BME280_temperature;BME280_humidity;BME280_pressure;Samples;Min_cycle;Max_cycle;Signal;HPM_P1;HPM_P2
2022/09/18 00:00:53;;;;;;;0.82;0.82;;;8.10;99.90;;;;;;4934138;29;20046;-78
2022/09/18 00:03:19;;;;;;;2.47;0.70;;;8.20;99.90;;;;;;4933083;29;20036;-77
2022/09/18 00:05:45;;;;;;;0.20;0.20;;;8.20;99.90;;;;;;4932455;29;20469;-76
2022/09/18 00:08:10;;;;;;;0.38;0.38;;;8.30;99.90;;;;;;4932738;29;20389;-76
2022/09/18 00:10:45;;;;;;;0.30;0.30;;;8.30;99.90;;;;;;4932584;29;20435;-77
2022/09/18 00:13:12;;;;;;;0.10;0.10;;;8.40;99.90;;;;;;4931782;29;20032;-76
2022/09/18 00:15:38;;;;;;;0.30;0.30;;;8.30;99.90;;;;;;4931596;29;20032;-75
2022/09/18 00:18:07;;;;;;;1.08;0.45;;;8.20;99.90;;;;;;4931677;29;20600;-76
2022/09/18 00:20:34;;;;;;;0.17;0.17;;;7.50;99.90;;;;;;4932132;29;20024;-78
2022/09/18 00:23:00;;;;;;;2.00;0.88;;;8.00;99.90;;;;;;4931606;29;20075;-77
2022/09/18 00:25:28;;;;;;;0.40;0.40;;;8.00;99.90;;;;;;4931813;29;20082;-76
2022/09/18 00:27:54;;;;;;;0.75;0.70;;;7.90;99.90;;;;;;4931496;29;20400;-77
2022/09/18 00:30:20;;;;;;;2.50;0.55;;;7.90;99.90;;;;;;4930709;29;20496;-77
2022/09/18 00:32:45;;;;;;;9.05;0.47;;;8.00;99.90;;;;;;4934881;29;20520;-78
2022/09/18 00:35:11;;;;;;;0.95;0.45;;;8.00;99.90;;;;;;4934408;29;20028;-76
2022/09/18 00:37:37;;;;;;;0.32;0.32;;;8.90;99.90;;;;;;4934704;29;20123;-74
2022/09/18 00:40:03;;;;;;;2.08;0.50;;;8.00;99.90;;;;;;4935048;29;20024;-75
2022/09/18 00:42:28;;;;;;;7.78;0.47;;;8.00;99.90;;;;;;4935425;29;20496;-75
2022/09/18 00:44:57;;;;;;;0.63;0.63;;;7.90;99.90;;;;;;4934632;29;20032;-74
2022/09/18 00:47:34;;;;;;;0.25;0.25;;;7.90;99.90;;;;;;4934565;29;20035;-75
2022/09/18 00:50:09;;;;;;;0.32;0.32;;;7.80;99.90;;;;;;4934631;29;20083;-75
2022/09/18 00:52:49;;;;;;;0.68;0.68;;;7.80;99.90;;;;;;4934680;29;20023;-75
2022/09/18 00:55:15;;;;;;;;;;;7.80;99.90;;;;;;4934555;29;20456;-75
2022/09/18 00:57:50;;;;;;;0.52;0.47;;;7.80;99.90;;;;;;4934675;29;19918;-75
2022/09/18 01:00:16;;;;;;;0.98;0.52;;;7.80;99.90;;;;;;4934456;29;20016;-75
2022/09/18 01:02:44;;;;;;;0.40;0.40;;;7.70;99.90;;;;;;4934501;29;20494;-75
2022/09/18 01:05:13;;;;;;;0.20;0.20;;;7.70;99.90;;;;;;4934488;29;20023;-75
2022/09/18 01:08:06;;;;;;;3.00;0.88;;;7.70;99.90;;;;;;4933881;29;20027;-75
2022/09/18 01:10:50;;;;;;;0.50;0.50;;;7.70;99.90;;;;;;4934381;29;20818;-74
2022/09/18 01:13:32;;;;;;;0.32;0.32;;;7.70;99.90;;;;;;4934227;29;20028;-75
2022/09/18 01:16:16;;;;;;;0.28;0.28;;;7.60;99.90;;;;;;4933950;29;20060;-75
2022/09/18 01:18:47;;;;;;;0.95;0.50;;;7.60;99.90;;;;;;4932861;29;20028;-75
2022/09/18 01:21:29;;;;;;;0.50;0.40;;;7.70;99.90;;;;;;4932908;29;20027;-75
2022/09/18 01:24:36;;;;;;;9.95;0.60;;;7.60;99.90;;;;;;4933558;29;20023;-75
2022/09/18 01:27:09;;;;;;;0.32;0.32;;;7.50;99.90;;;;;;4934288;29;20031;-75
2022/09/18 01:29:55;;;;;;;1.08;0.98;;;7.50;99.90;;;;;;4948498;28;20032;-75
2022/09/18 01:32:40;;;;;;;0.20;0.20;;;7.40;99.90;;;;;;4933688;29;20031;-75
2022/09/18 01:35:08;;;;;;;27.10;0.98;;;7.30;99.90;;;;;;4933671;29;20023;-74
2022/09/18 01:37:48;;;;;;;0.40;0.40;;;7.30;99.90;;;;;;4933358;29;20437;-75
2022/09/18 01:40:25;;;;;;;0.40;0.40;;;7.30;99.90;;;;;;4933689;29;20028;-75
2022/09/18 01:42:54;;;;;;;1.10;0.63;;;7.30;99.90;;;;;;4934050;29;20090;-75
2022/09/18 01:45:31;;;;;;;1.05;0.50;;;7.30;99.90;;;;;;4933499;29;20024;-75
2022/09/18 01:48:02;;;;;;;0.40;0.40;;;7.30;99.90;;;;;;4934070;29;20027;-74
2022/09/18 01:50:32;;;;;;;1.38;0.70;;;7.30;99.90;;;;;;4933481;29;20031;-75
2022/09/18 01:53:14;;;;;;;1.27;0.88;;;7.30;99.90;;;;;;4933355;29;20160;-75
2022/09/18 01:55:44;;;;;;;0.70;0.70;;;7.20;99.90;;;;;;4933281;29;20055;-75
2022/09/18 01:58:17;;;;;;;0.47;0.47;;;7.20;99.90;;;;;;4932770;29;20374;-75
2022/09/18 02:00:50;;;;;;;0.43;0.30;;;7.20;99.90;;;;;;4933975;29;20083;-75
2022/09/18 02:03:22;;;;;;;6.43;0.85;;;7.20;99.90;;;;;;4934924;29;20027;-74
2022/09/18 02:05:53;;;;;;;1.85;0.40;;;7.20;99.90;;;;;;4935053;29;20376;-75
2022/09/18 02:08:24;;;;;;;0.50;0.50;;;7.20;99.90;;;;;;4934573;29;20020;-75
2022/09/18 02:11:09;;;;;;;0.50;0.50;;;7.30;99.90;;;;;;4934061;29;20024;-75
2022/09/18 02:13:39;;;;;;;0.90;0.47;;;7.20;99.90;;;;;;4933671;29;20447;-74
2022/09/18 02:16:10;;;;;;;2.60;1.17;;;7.40;99.90;;;;;;4933574;29;20028;-75
2022/09/18 02:18:45;;;;;;;1.27;1.02;;;7.60;99.90;;;;;;4932544;29;20074;-75
2022/09/18 02:21:15;;;;;;;2.67;1.10;;;7.70;99.90;;;;;;4933414;29;20026;-75
2022/09/18 02:23:42;;;;;;;0.47;0.45;;;7.70;99.90;;;;;;4933063;29;20051;-75
2022/09/18 02:26:11;;;;;;;0.47;0.38;;;7.80;99.90;;;;;;4933730;29;20028;-75
2022/09/18 02:28:38;;;;;;;0.47;0.47;;;8.00;99.90;;;;;;4933591;29;20039;-75
2022/09/18 02:31:04;;;;;;;3.70;1.40;;;7.90;99.90;;;;;;4948131;28;20024;-75
2022/09/18 02:33:31;;;;;;;1.35;0.52;;;7.90;99.90;;;;;;4933395;29;20032;-75
2022/09/18 02:36:18;;;;;;;0.28;0.28;;;7.90;99.90;;;;;;4933407;29;20032;-75
2022/09/18 02:39:17;;;;;;;0.30;0.30;;;7.90;99.90;;;;;;4933139;29;20527;-74
2022/09/18 02:41:49;;;;;;;0.80;0.77;;;7.80;99.90;;;;;;4934205;29;20019;-75
2022/09/18 02:44:19;;;;;;;1.83;0.60;;;7.80;99.90;;;;;;4932308;29;20128;-75
2022/09/18 02:47:03;;;;;;;10.43;1.08;;;7.80;99.90;;;;;;4933216;29;20016;-75
2022/09/18 02:49:55;;;;;;;0.65;0.65;;;7.80;99.90;;;;;;4933413;29;20091;-75
2022/09/18 02:52:36;;;;;;;0.28;0.28;;;7.80;99.90;;;;;;4931361;29;20111;-75
2022/09/18 02:55:09;;;;;;;0.60;0.60;;;7.80;99.90;;;;;;4936969;29;20482;-74
2022/09/18 02:57:40;;;;;;;0.50;0.50;;;7.70;99.90;;;;;;4936884;29;20589;-75
2022/09/18 03:00:07;;;;;;;5.40;0.40;;;7.60;99.90;;;;;;4937202;29;20098;-75
2022/09/18 03:02:33;;;;;;;5.35;1.10;;;7.60;99.90;;;;;;4937683;29;20525;-75
2022/09/18 03:04:58;;;;;;;0.65;0.40;;;7.60;99.90;;;;;;4937884;29;20031;-75
2022/09/18 03:07:24;;;;;;;0.28;0.28;;;7.60;99.90;;;;;;4938463;29;20547;-76
2022/09/18 03:09:50;;;;;;;0.30;0.30;;;7.60;99.90;;;;;;4937345;29;20046;-74
2022/09/18 03:12:16;;;;;;;0.30;0.30;;;7.60;99.90;;;;;;4938313;29;20036;-74
2022/09/18 03:14:41;;;;;;;0.93;0.93;;;7.60;99.90;;;;;;4938305;29;20031;-75
2022/09/18 03:17:08;;;;;;;0.60;0.60;;;7.40;99.90;;;;;;4941157;29;20070;-75
2022/09/18 03:19:34;;;;;;;0.82;0.82;;;7.40;99.90;;;;;;4938663;29;20055;-75
2022/09/18 03:22:00;;;;;;;1.25;0.65;;;;;;;;;;4940169;29;20027;-75
2022/09/18 03:24:29;;;;;;;0.63;0.63;;;7.30;99.90;;;;;;4938709;29;20046;-75
2022/09/18 03:26:56;;;;;;;0.20;0.20;;;7.30;99.90;;;;;;4940021;29;20023;-74
2022/09/18 03:29:22;;;;;;;2.45;0.38;;;7.30;99.90;;;;;;4938394;29;20118;-75
2022/09/18 03:31:47;;;;;;;0.43;0.43;;;7.30;99.90;;;;;;4939059;29;20062;-75
2022/09/18 03:34:13;;;;;;;1.85;0.63;;;7.30;99.90;;;;;;4938766;29;20489;-75
2022/09/18 03:36:39;;;;;;;0.20;0.20;;;7.40;99.90;;;;;;4939389;29;20032;-74
2022/09/18 03:39:05;;;;;;;3.97;0.47;;;7.30;99.90;;;;;;4938806;29;20034;-75
2022/09/18 03:41:30;;;;;;;1.42;0.43;;;7.30;99.90;;;;;;4940074;29;20036;-75
2022/09/18 03:43:56;;;;;;;0.95;0.50;;;7.40;99.90;;;;;;4936963;29;20039;-75
2022/09/18 03:46:22;;;;;;;0.35;0.30;;;7.30;99.90;;;;;;4934848;29;20050;-74
2022/09/18 03:48:49;;;;;;;0.20;0.20;;;7.30;99.90;;;;;;4936958;29;20111;-75
2022/09/18 03:51:16;;;;;;;0.50;0.50;;;7.30;99.90;;;;;;4936478;29;20034;-74
2022/09/18 03:53:44;;;;;;;0.60;0.50;;;7.30;99.90;;;;;;4936172;29;20026;-75
2022/09/18 03:56:10;;;;;;;0.30;0.30;;;7.30;99.90;;;;;;4936314;29;20082;-75
2022/09/18 03:58:35;;;;;;;0.15;0.15;;;7.20;99.90;;;;;;4937437;29;20059;-75
2022/09/18 04:01:01;;;;;;;0.40;0.40;;;7.20;99.90;;;;;;4935864;29;20028;-75
2022/09/18 04:03:29;;;;;;;0.73;0.40;;;7.20;99.90;;;;;;4935483;29;20019;-75
2022/09/18 04:05:55;;;;;;;1.65;0.40;;;7.20;99.90;;;;;;4948809;28;20023;-75
2022/09/18 04:08:21;;;;;;;0.47;0.47;;;7.20;99.90;;;;;;4935518;29;20083;-75
2022/09/18 04:10:47;;;;;;;8.52;0.52;;;7.20;99.90;;;;;;4935466;29;20047;-75
2022/09/18 04:13:12;;;;;;;0.45;0.45;;;7.20;99.90;;;;;;4936305;29;20030;-75
2022/09/18 04:15:38;;;;;;;2.60;0.68;;;7.20;99.90;;;;;;4937025;29;20024;-74
2022/09/18 04:18:04;;;;;;;0.40;0.40;;;7.30;99.90;;;;;;4938339;29;20571;-74
2022/09/18 04:20:30;;;;;;;0.20;0.20;;;7.40;99.90;;;;;;4937617;29;20034;-74
2022/09/18 04:22:59;;;;;;;4.53;0.70;;;7.40;99.90;;;;;;4937778;29;20032;-75
2022/09/18 04:25:24;;;;;;;0.90;0.90;;;7.50;99.90;;;;;;4938110;29;20055;-75
2022/09/18 04:27:50;;;;;;;0.20;0.20;;;7.50;99.90;;;;;;4938316;29;20055;-74
2022/09/18 04:30:16;;;;;;;2.92;0.93;;;7.60;99.90;;;;;;4936493;29;20027;-75
2022/09/18 04:32:43;;;;;;;0.45;0.45;;;7.50;99.90;;;;;;4935106;29;20032;-74
2022/09/18 04:35:09;;;;;;;0.80;0.80;;;7.50;99.90;;;;;;4950130;28;20034;-75
2022/09/18 04:37:34;;;;;;;1.65;1.23;;;7.60;99.90;;;;;;4935320;29;20031;-75
2022/09/18 04:40:00;;;;;;;0.75;0.73;;;7.70;99.90;;;;;;4935065;29;20471;-75
2022/09/18 04:42:26;;;;;;;0.50;0.50;;;7.70;99.90;;;;;;4935271;29;20040;-75
2022/09/18 04:44:52;;;;;;;4.07;0.43;;;7.70;99.90;;;;;;4936802;29;20076;-75
2022/09/18 04:47:17;;;;;;;0.38;0.38;;;7.70;99.90;;;;;;4935905;29;20024;-75
2022/09/18 04:49:43;;;;;;;0.50;0.50;;;7.70;99.90;;;;;;4934486;29;20062;-75
2022/09/18 04:52:09;;;;;;;0.70;0.70;;;7.70;99.90;;;;;;4935608;29;20024;-75
2022/09/18 04:54:35;;;;;;;0.85;0.38;;;7.60;99.90;;;;;;4934758;29;20027;-75
2022/09/18 04:57:00;;;;;;;3.30;0.98;;;7.60;99.90;;;;;;4935043;29;20388;-74
2022/09/18 04:59:29;;;;;;;2.38;0.68;;;7.60;99.90;;;;;;4935140;29;20115;-75
2022/09/18 05:01:54;;;;;;;0.20;0.20;;;7.60;99.90;;;;;;4935140;29;20024;-74
2022/09/18 05:04:20;;;;;;;0.52;0.47;;;7.60;99.90;;;;;;4936023;29;20082;-74
2022/09/18 05:06:46;;;;;;;0.40;0.40;;;7.60;99.90;;;;;;4935676;29;20028;-76
2022/09/18 05:09:11;;;;;;;2.03;0.60;;;7.70;99.90;;;;;;4935287;29;20477;-74
2022/09/18 05:11:37;;;;;;;0.60;0.60;;;7.60;99.90;;;;;;4935553;29;20043;-74
2022/09/18 05:14:03;;;;;;;0.50;0.50;;;7.60;99.90;;;;;;4933352;29;20030;-75
2022/09/18 05:16:28;;;;;;;0.43;0.43;;;7.60;99.90;;;;;;4936009;29;20116;-75
2022/09/18 05:18:54;;;;;;;0.10;0.10;;;7.60;99.90;;;;;;4937227;29;20031;-74
2022/09/18 05:21:20;;;;;;;0.28;0.28;;;7.70;99.90;;;;;;4937890;29;20051;-74
2022/09/18 05:23:46;;;;;;;6.55;0.43;;;7.70;99.90;;;;;;4934631;29;20066;-75
2022/09/18 05:26:12;;;;;;;0.57;0.57;;;7.70;99.90;;;;;;4935775;29;20020;-74
2022/09/18 05:28:39;;;;;;;0.28;0.28;;;7.60;99.90;;;;;;4935732;28;20040;-75
2022/09/18 05:31:05;;;;;;;3.50;0.40;;;7.60;99.90;;;;;;4934510;29;20026;-75
2022/09/18 05:33:31;;;;;;;0.40;0.40;;;7.60;99.90;;;;;;4935153;29;20031;-75
2022/09/18 05:35:57;;;;;;;4.97;0.55;;;7.50;99.90;;;;;;4933482;29;20035;-74
2022/09/18 05:38:24;;;;;;;0.65;0.47;;;7.50;99.90;;;;;;4934219;29;20027;-74
2022/09/18 05:40:50;;;;;;;0.52;0.52;;;7.50;99.90;;;;;;4935058;29;20035;-75
2022/09/18 05:43:16;;;;;;;0.57;0.52;;;7.40;99.90;;;;;;4933994;29;20023;-75
2022/09/18 05:45:42;;;;;;;0.30;0.30;;;7.40;99.90;;;;;;4941753;29;20047;-74
2022/09/18 05:48:11;;;;;;;0.30;0.30;;;7.40;99.90;;;;;;4939873;29;20034;-74
2022/09/18 05:50:37;;;;;;;0.93;0.52;;;7.40;99.90;;;;;;4936869;29;20103;-74
2022/09/18 05:53:09;;;;;;;0.47;0.47;;;7.30;99.90;;;;;;4932866;29;20034;-74
2022/09/18 05:55:35;;;;;;;4.13;1.30;;;7.40;99.90;;;;;;4932590;29;20095;-74
2022/09/18 05:58:04;;;;;;;3.55;1.48;;;7.50;99.90;;;;;;4932557;29;20039;-74
2022/09/18 06:00:31;;;;;;;1.88;1.67;;;7.50;99.90;;;;;;4932062;29;20121;-74
2022/09/18 06:03:02;;;;;;;5.53;2.17;;;7.40;99.90;;;;;;4932721;29;20027;-74
2022/09/18 06:05:29;;;;;;;2.03;1.60;;;7.30;99.90;;;;;;4933694;29;20215;-74
2022/09/18 06:08:00;;;;;;;1.33;1.23;;;7.30;99.90;;;;;;4931803;29;20377;-74
2022/09/18 06:10:28;;;;;;;7.15;2.25;;;7.30;99.90;;;;;;4935704;29;20030;-74
2022/09/18 06:13:09;;;;;;;2.22;0.75;;;7.40;99.90;;;;;;4933326;29;20034;-74
2022/09/18 06:15:35;;;;;;;7.13;0.75;;;7.40;99.90;;;;;;4936128;29;20196;-74
2022/09/18 06:18:01;;;;;;;0.47;0.47;;;7.60;99.90;;;;;;4940181;29;20252;-74
2022/09/18 06:20:27;;;;;;;0.63;0.63;;;7.60;99.90;;;;;;4936113;29;20020;-75
2022/09/18 06:22:53;;;;;;;1.63;1.08;;;7.60;99.90;;;;;;4934796;29;20039;-75
2022/09/18 06:25:20;;;;;;;0.65;0.65;;;7.70;99.90;;;;;;4934273;29;20024;-74
2022/09/18 06:27:49;;;;;;;0.68;0.68;;;7.70;99.90;;;;;;4932966;29;20628;-74
2022/09/18 06:30:15;;;;;;;1.40;0.50;;;7.90;99.90;;;;;;4953664;28;20488;-73
2022/09/18 06:32:40;;;;;;;0.75;0.73;;;8.00;99.90;;;;;;4936220;29;20111;-75
2022/09/18 06:35:07;;;;;;;0.38;0.38;;;8.10;99.90;;;;;;4934536;29;20286;-74
2022/09/18 06:37:32;;;;;;;3.90;1.13;;;8.30;99.90;;;;;;4932878;29;20531;-74
2022/09/18 06:39:58;;;;;;;2.45;0.90;;;8.40;99.90;;;;;;4939204;29;20032;-75
2022/09/18 06:42:24;;;;;;;0.68;0.68;;;8.40;99.90;;;;;;4954495;29;20046;-71
2022/09/18 06:44:49;;;;;;;0.77;0.77;;;8.40;99.90;;;;;;4955090;29;20018;-75
2022/09/18 06:47:15;;;;;;;1.55;0.40;;;8.50;99.90;;;;;;4955146;28;20039;-75
2022/09/18 06:49:41;;;;;;;1.08;0.88;;;8.50;99.90;;;;;;4950583;29;20027;-77
2022/09/18 06:52:07;;;;;;;0.45;0.38;;;8.60;99.90;;;;;;4951862;28;20035;-74
2022/09/18 06:54:33;;;;;;;7.63;0.40;;;8.80;99.90;;;;;;4953895;28;20031;-75
2022/09/18 06:56:58;;;;;;;1.10;0.43;;;9.00;99.90;;;;;;4954036;29;20520;-76
2022/09/18 06:59:24;;;;;;;0.20;0.20;;;9.40;99.90;;;;;;4951967;28;20703;-74
2022/09/18 07:01:49;;;;;;;0.47;0.47;;;9.30;99.90;;;;;;4968000;28;20472;-74
2022/09/18 07:04:15;;;;;;;1.15;0.20;;;9.50;99.90;;;;;;4951567;28;20126;-74
2022/09/18 07:06:45;;;;;;;1.38;0.82;;;9.50;99.90;;;;;;4950643;29;20110;-75
2022/09/18 07:09:11;;;;;;;0.22;0.20;;;9.70;99.90;;;;;;4949928;29;20086;-74
2022/09/18 07:11:37;;;;;;;0.20;0.20;;;9.70;99.90;;;;;;4950045;29;20047;-73
2022/09/18 07:14:09;;;;;;;2.08;1.38;;;9.80;99.90;;;;;;4950744;29;20031;-75
2022/09/18 07:16:35;;;;;;;0.20;0.20;;;9.90;99.90;;;;;;4951036;28;20035;-73
2022/09/18 07:19:01;;;;;;;5.78;1.75;;;9.90;99.90;;;;;;4950902;29;20026;-74
2022/09/18 07:21:27;;;;;;;0.63;0.40;;;10.00;99.90;;;;;;4965202;28;20038;-74
2022/09/18 07:23:53;;;;;;;4.30;0.88;;;10.10;99.90;;;;;;4951169;28;20031;-75
2022/09/18 07:26:18;;;;;;;1.67;0.70;;;10.10;99.90;;;;;;4951499;29;20031;-74
2022/09/18 07:28:44;;;;;;;0.75;0.75;;;10.10;99.90;;;;;;4952124;28;20051;-74
2022/09/18 07:31:10;;;;;;;0.95;0.68;;;10.20;99.90;;;;;;4950532;28;20027;-73
2022/09/18 07:33:36;;;;;;;1.05;0.88;;;10.30;99.90;;;;;;4950531;29;20055;-74
2022/09/18 07:36:04;;;;;;;1.23;0.32;;;10.30;99.90;;;;;;4951034;29;20035;-74
2022/09/18 07:38:30;;;;;;;0.20;0.20;;;10.50;99.90;;;;;;4951069;28;20059;-76
2022/09/18 07:40:59;;;;;;;0.57;0.57;;;10.40;99.90;;;;;;4954100;29;20031;-74
2022/09/18 07:43:25;;;;;;;1.75;0.50;;;10.50;99.90;;;;;;4954880;28;20508;-75
2022/09/18 07:45:51;;;;;;;0.30;0.30;;;10.50;99.90;;;;;;4954954;29;20032;-75
2022/09/18 07:48:16;;;;;;;7.28;0.90;;;10.50;99.90;;;;;;4968721;28;20123;-74
2022/09/18 07:50:42;;;;;;;0.32;0.32;;;10.50;99.90;;;;;;4954776;29;20031;-73
2022/09/18 07:53:09;;;;;;;8.23;1.85;;;10.50;99.90;;;;;;4955066;28;20031;-74
2022/09/18 07:55:35;;;;;;;0.22;0.22;;;;;;;;;;4954060;28;20039;-74
2022/09/18 07:58:03;;;;;;;0.57;0.40;;;10.70;99.90;;;;;;4954903;28;20515;-74
2022/09/18 08:00:33;;;;;;;0.73;0.47;;;10.70;99.90;;;;;;4954672;28;20028;-75
2022/09/18 08:03:04;;;;;;;1.05;0.75;;;10.80;99.90;;;;;;4954480;29;20491;-73
2022/09/18 08:05:30;;;;;;;1.00;0.80;;;10.80;99.90;;;;;;4954785;29;20031;-74
2022/09/18 08:08:02;;;;;;;1.05;0.45;;;10.90;99.90;;;;;;4955230;29;20035;-74
2022/09/18 08:10:27;;;;;;;0.47;0.47;;;10.90;99.90;;;;;;4954129;29;20023;-74
2022/09/18 08:12:53;;;;;;;0.10;0.10;;;10.90;99.90;;;;;;4954372;28;20380;-74
2022/09/18 08:15:19;;;;;;;0.45;0.30;;;11.00;99.90;;;;;;4954280;29;20034;-74
2022/09/18 08:17:45;;;;;;;3.20;0.35;;;11.10;99.90;;;;;;4954318;28;20035;-75
2022/09/18 08:20:11;;;;;;;0.22;0.22;;;11.10;99.90;;;;;;4954045;29;20019;-74
2022/09/18 08:22:38;;;;;;;0.98;0.98;;;11.20;99.90;;;;;;4954421;28;20031;-74
2022/09/18 08:25:05;;;;;;;0.30;0.30;;;11.40;99.90;;;;;;4953849;29;20026;-74
2022/09/18 08:27:34;;;;;;;0.10;0.10;;;11.50;99.90;;;;;;4954082;28;20469;-73
2022/09/18 08:30:00;;;;;;;0.30;0.22;;;11.50;99.90;;;;;;4954204;28;20226;-74
2022/09/18 08:32:25;;;;;;;3.13;0.50;;;11.60;99.90;;;;;;4953885;28;20396;-74
2022/09/18 08:34:51;;;;;;;1.23;1.13;;;11.70;99.90;;;;;;4953884;29;20031;-75
2022/09/18 08:37:19;;;;;;;0.40;0.40;;;12.20;99.90;;;;;;4953682;28;20043;-74
2022/09/18 08:39:45;;;;;;;0.75;0.32;;;12.90;99.90;;;;;;4969086;28;20027;-75
2022/09/18 08:42:39;;;;;;;0.55;0.25;;;13.30;99.90;;;;;;4954705;29;20078;-74
2022/09/18 08:45:17;;;;;;;1.77;0.63;;;13.20;99.90;;;;;;4955380;28;20027;-74
2022/09/18 08:47:51;;;;;;;1.65;0.93;;;12.90;99.90;;;;;;4955223;29;20019;-75
2022/09/18 08:50:25;;;;;;;1.45;1.35;;;12.60;99.90;;;;;;4954111;28;20031;-74
2022/09/18 08:53:10;;;;;;;0.20;0.20;;;12.40;99.90;;;;;;4953563;29;20027;-76
2022/09/18 08:55:39;;;;;;;0.30;0.30;;;12.20;99.90;;;;;;4953556;28;20066;-75
2022/09/18 08:58:09;;;;;;;2.63;0.30;;;12.20;99.90;;;;;;4953536;28;20035;-75
2022/09/18 09:00:58;;;;;;;0.40;0.40;;;12.10;99.90;;;;;;4953325;29;20027;-75
2022/09/18 09:03:24;;;;;;;1.27;0.73;;;12.30;99.90;;;;;;4953287;28;20027;-74
2022/09/18 09:06:27;;;;;;;3.58;0.68;;;12.50;99.90;;;;;;4953280;28;20035;-75
2022/09/18 09:08:56;;;;;;;0.32;0.32;;;12.60;99.90;;;;;;4947704;28;20036;-76
2022/09/18 09:11:27;;;;;;;2.13;0.20;;;12.40;99.90;;;;;;4953145;28;20047;-75
2022/09/18 09:14:28;;;;;;;0.10;0.10;;;12.50;99.90;;;;;;4953547;28;20027;-76
2022/09/18 09:17:13;;;;;;;0.90;0.57;;;12.70;99.90;;;;;;4940714;29;20051;-74
2022/09/18 09:20:20;;;;;;;0.10;0.10;;;13.10;99.90;;;;;;4952827;29;20036;-75
2022/09/18 09:23:04;;;;;;;0.75;0.20;;;13.10;99.90;;;;;;4951780;29;20332;-76
2022/09/18 09:25:48;;;;;;;5.47;0.57;;;13.10;99.90;;;;;;4953154;29;20019;-77
2022/09/18 09:28:18;;;;;;;0.17;0.17;;;13.30;99.90;;;;;;4952686;28;20027;-76
2022/09/18 09:30:48;;;;;;;1.95;0.73;;;13.10;99.90;;;;;;4952922;28;20027;-75
2022/09/18 09:33:29;;;;;;;0.30;0.30;;;13.30;99.90;;;;;;4953020;29;20432;-74
2022/09/18 09:36:02;;;;;;;1.10;0.50;;;13.20;99.90;;;;;;4952825;29;20480;-74
2022/09/18 09:38:46;;;;;;;0.55;0.38;;;13.10;99.90;;;;;;4952652;29;20031;-75
2022/09/18 09:41:19;;;;;;;1.50;0.20;;;13.20;99.90;;;;;;4953184;28;20027;-74
2022/09/18 09:43:55;;;;;;;0.13;0.13;;;13.40;99.90;;;;;;4951367;29;20098;-75
2022/09/18 09:46:53;;;;;;;0.77;0.50;;;13.50;99.90;;;;;;4952815;29;20052;-74
2022/09/18 09:50:03;;;;;;;0.20;0.20;;;13.50;99.90;;;;;;4953098;28;20048;-75
2022/09/18 09:52:30;;;;;;;0.17;0.17;;;;;;;;;;4952440;28;20023;-75
2022/09/18 09:55:01;;;;;;;5.25;0.57;;;13.60;99.90;;;;;;4952391;28;20050;-74
2022/09/18 09:57:41;;;;;;;0.10;0.10;;;13.70;99.90;;;;;;4952375;28;20035;-75
2022/09/18 10:00:22;;;;;;;0.85;0.30;;;13.70;99.90;;;;;;4952662;29;20062;-75
2022/09/18 10:03:05;;;;;;;0.25;0.10;;;13.70;99.90;;;;;;4951333;28;20023;-75
2022/09/18 10:05:31;;;;;;;0.95;0.45;;;14.00;99.90;;;;;;4952349;29;20028;-76
2022/09/18 10:08:02;;;;;;;1.85;0.50;;;14.00;99.90;;;;;;4950945;29;20028;-75
2022/09/18 10:10:55;;;;;;;0.25;0.25;;;14.00;99.90;;;;;;4952399;28;20027;-74
2022/09/18 10:13:33;;;;;;;0.10;0.10;;;13.90;99.90;;;;;;4952221;29;20034;-74
2022/09/18 10:16:08;;;;;;;0.10;0.10;;;13.90;99.90;;;;;;4952291;29;20031;-76
2022/09/18 10:18:42;;;;;;;0.40;0.40;;;13.90;99.90;;;;;;4952095;28;20098;-75
2022/09/18 10:21:15;;;;;;;0.30;0.22;;;14.00;99.90;;;;;;4951976;29;20055;-76
2022/09/18 10:23:52;;;;;;;0.10;0.10;;;14.20;99.90;;;;;;4951774;29;20027;-74
2022/09/18 10:26:48;;;;;;;0.63;0.10;;;14.30;99.90;;;;;;4952320;29;20426;-74
2022/09/18 10:29:20;;;;;;;0.55;0.40;;;14.40;99.90;;;;;;4951990;28;20030;-76
2022/09/18 10:31:51;;;;;;;0.55;0.30;;;14.30;99.90;;;;;;4951958;28;20031;-74
2022/09/18 10:34:29;;;;;;;0.38;0.38;;;14.20;99.90;;;;;;4952117;29;20028;-74
2022/09/18 10:36:55;;;;;;;4.38;0.63;;;14.60;99.90;;;;;;4951640;28;20039;-74
2022/09/18 10:39:28;;;;;;;0.17;0.17;;;14.70;99.90;;;;;;4951873;28;20022;-75
2022/09/18 10:42:03;;;;;;;2.50;0.25;;;14.80;99.90;;;;;;4966410;28;20539;-74
2022/09/18 10:44:30;;;;;;;2.90;1.30;;;14.70;94.40;;;;;;4951714;29;20035;-75
2022/09/18 10:47:08;;;;;;;2.47;0.30;;;14.60;95.70;;;;;;4966627;28;20062;-74
2022/09/18 10:49:51;;;;;;;0.17;0.17;;;14.60;96.30;;;;;;4952052;28;20024;-74
2022/09/18 10:52:32;;;;;;;0.20;0.20;;;14.60;92.60;;;;;;4951832;28;20015;-75
2022/09/18 10:55:05;;;;;;;0.03;0.03;;;14.70;94.40;;;;;;4951509;29;20475;-77
2022/09/18 10:58:10;;;;;;;6.35;0.47;;;14.70;94.90;;;;;;4951633;29;20444;-74
2022/09/18 11:01:12;;;;;;;0.75;0.28;;;14.90;92.10;;;;;;4951759;28;20051;-75
2022/09/18 11:03:58;;;;;;;1.08;0.43;;;15.10;91.80;;;;;;4947044;28;20117;-75
2022/09/18 11:06:25;;;;;;;0.70;0.15;;;15.00;89.90;;;;;;4951599;29;20110;-74
2022/09/18 11:08:56;;;;;;;0.05;0.05;;;15.10;91.10;;;;;;4951410;28;20027;-75
2022/09/18 11:11:26;;;;;;;0.52;0.52;;;15.00;84.80;;;;;;4966211;28;20031;-74
2022/09/18 11:14:01;;;;;;;0.15;0.15;;;14.80;86.50;;;;;;4952072;28;20102;-75
2022/09/18 11:16:35;;;;;;;5.97;0.30;;;14.80;88.70;;;;;;4955397;29;20278;-76
2022/09/18 11:19:25;;;;;;;0.30;0.28;;;14.80;88.70;;;;;;4955518;29;20384;-75
2022/09/18 11:21:54;;;;;;;0.95;0.40;;;14.90;89.30;;;;;;4955362;28;20026;-75
2022/09/18 11:24:26;;;;;;;0.20;0.20;;;15.00;90.60;;;;;;4955089;29;20039;-75
2022/09/18 11:26:57;;;;;;;0.65;0.65;;;15.20;87.60;;;;;;4970164;28;20543;-75
2022/09/18 11:29:31;;;;;;;0.20;0.13;;;15.20;90.80;;;;;;4955228;29;20035;-75
2022/09/18 11:32:25;;;;;;;2.05;0.30;;;15.40;90.80;;;;;;4954922;28;20073;-74
2022/09/18 11:35:03;;;;;;;4.93;0.60;;;15.30;85.60;;;;;;4952330;28;20046;-75
2022/09/18 11:38:06;;;;;;;0.30;0.30;;;15.10;89.50;;;;;;4954803;29;20035;-74
2022/09/18 11:41:00;;;;;;;0.13;0.13;;;15.20;90.90;;;;;;4951643;28;20039;-75
2022/09/18 11:43:33;;;;;;;0.80;0.40;;;15.50;87.00;;;;;;4955045;28;20035;-75
2022/09/18 11:46:07;;;;;;;0.20;0.20;;;15.80;87.30;;;;;;4954792;29;20023;-74
2022/09/18 11:48:50;;;;;;;0.10;0.10;;;15.90;88.30;;;;;;4954822;28;20102;-74
2022/09/18 11:51:25;;;;;;;0.93;0.40;;;16.00;86.00;;;;;;4954559;28;20119;-74
2022/09/18 11:54:01;;;;;;;0.30;0.30;;;16.00;84.60;;;;;;4969136;28;20066;-74
2022/09/18 11:56:49;;;;;;;0.47;0.40;;;16.00;82.10;;;;;;4954524;28;20047;-74
2022/09/18 11:59:41;;;;;;;0.10;0.10;;;16.40;77.50;;;;;;4954728;29;20023;-75
2022/09/18 12:02:25;;;;;;;0.10;0.10;;;17.20;76.00;;;;;;4954287;28;20090;-75
2022/09/18 12:05:06;;;;;;;0.20;0.20;;;18.40;68.30;;;;;;4954430;28;20071;-76
2022/09/18 12:07:36;;;;;;;1.55;0.57;;;18.40;65.00;;;;;;4954292;28;20055;-74
2022/09/18 12:10:39;;;;;;;3.08;0.38;;;18.40;66.10;;;;;;4954489;29;20122;-74
2022/09/18 12:13:25;;;;;;;0.13;0.13;;;18.30;65.90;;;;;;4954354;28;20031;-74
2022/09/18 12:15:58;;;;;;;0.73;0.68;;;19.10;65.90;;;;;;4953671;28;20023;-74
2022/09/18 12:18:32;;;;;;;0.10;0.10;;;19.60;63.30;;;;;;4953714;28;20027;-74
2022/09/18 12:21:14;;;;;;;0.28;0.25;;;20.40;59.60;;;;;;4968489;28;20573;-77
2022/09/18 12:23:40;;;;;;;0.57;0.57;;;20.60;60.00;;;;;;4953811;28;20073;-75
2022/09/18 12:26:42;;;;;;;0.25;0.20;;;20.80;60.00;;;;;;4953163;28;20031;-74
2022/09/18 12:29:19;;;;;;;0.17;0.10;;;21.10;58.90;;;;;;4953986;28;20082;-75
2022/09/18 12:31:57;;;;;;;0.68;0.20;;;20.80;55.60;;;;;;4953470;28;20027;-76
2022/09/18 12:34:28;;;;;;;1.65;0.25;;;20.60;56.90;;;;;;4952095;29;20034;-75
2022/09/18 12:37:17;;;;;;;0.30;0.10;;;20.90;57.20;;;;;;4953412;29;20039;-75
2022/09/18 12:40:09;;;;;;;0.85;0.20;;;20.90;56.10;;;;;;4953297;29;20086;-76
2022/09/18 12:42:38;;;;;;;0.10;0.10;;;20.80;57.00;;;;;;4953960;28;20073;-76
2022/09/18 12:45:38;;;;;;;0.10;0.10;;;21.00;56.80;;;;;;4953768;28;20046;-75
2022/09/18 12:48:20;;;;;;;0.20;0.20;;;20.80;57.00;;;;;;4953437;28;20019;-76
2022/09/18 12:51:08;;;;;;;0.05;0.03;;;21.30;56.90;;;;;;4954293;29;20110;-75
2022/09/18 12:53:57;;;;;;;0.00;0.00;;;21.30;57.40;;;;;;4953288;29;20028;-75
2022/09/18 12:56:31;;;;;;;0.10;0.10;;;20.80;56.40;;;;;;4953181;28;20341;-75
2022/09/18 12:59:23;;;;;;;3.88;0.20;;;20.30;57.00;;;;;;4953371;29;20512;-76
2022/09/18 13:02:12;;;;;;;2.35;0.50;;;20.00;56.90;;;;;;4953351;29;20580;-75
2022/09/18 13:04:46;;;;;;;0.10;0.10;;;19.90;58.50;;;;;;4952881;28;20030;-75
2022/09/18 13:07:30;;;;;;;1.85;0.45;;;19.60;58.80;;;;;;4967896;28;20031;-76
2022/09/18 13:10:12;;;;;;;0.52;0.22;;;20.20;57.70;;;;;;4953016;28;20408;-75
2022/09/18 13:13:01;;;;;;;1.33;0.45;;;20.00;60.00;;;;;;4953202;28;20023;-74
2022/09/18 13:15:32;;;;;;;4.00;0.32;;;19.50;58.10;;;;;;4953202;28;20106;-75
2022/09/18 13:18:27;;;;;;;0.03;0.03;;;20.00;58.30;;;;;;4967520;28;20492;-75
2022/09/18 13:20:55;;;;;;;0.10;0.10;;;20.30;57.80;;;;;;4952566;28;20019;-75